Ast Malta — 9HA2174 — position and weather

sailwx.info

Track history (hours):
 
Tides and Currents Weather Stations Pressure Air Temp Water Temp Dewpoint Dewpoint Depression Visibility Wind Speed Wind Dir Waves Ship Positions

Ast Malta

Last reported at 2018-Jun-15 08:28 UTC. Time now 2018-Jun-18 21:16 UTC.
Position N 37°27' E 025°56'.

Length 99 m.

Type: Cargo ship. MMSI: 248097000.

Date/timePositionNaut miles runAvg speedWind from/ knotsBaromVisibWave heightAir tempDewpointWater temp
2018-Jun-15 08:28N 37°27' E 025°56'4 7.9
2018-Jun-15 08:00N 37°29' E 025°52'23 7.6
2018-Jun-15 04:56N 37°50' E 025°41'195 7.3
2018-Jun-14 02:05N 40°45' E 027°33'1 9.2
2018-Jun-14 02:00N 40°45' E 027°34'6 9.0
2018-Jun-14 01:17N 40°47' E 027°42'5 9.1
2018-Jun-14 00:46N 40°47' E 027°48'3 9.2
2018-Jun-14 00:29N 40°48' E 027°52'6 9.0
2018-Jun-13 23:52N 40°49' E 027°59'5 9.0
2018-Jun-13 23:21N 40°50' E 028°05'4 8.8
2018-Jun-13 22:57N 40°50' E 028°10'4 8.8
2018-Jun-13 22:29N 40°51' E 028°15'5 9.0
2018-Jun-13 21:58N 40°51' E 028°21'5 9.1
2018-Jun-13 21:25N 40°52' E 028°28'4 8.7
2018-Jun-13 20:57N 40°52' E 028°33'6 8.9
2018-Jun-13 20:13N 40°54' E 028°42'2 9.1
2018-Jun-13 20:00N 40°54' E 028°44'16 8.5
2018-Jun-13 18:07N 41°03' E 029°02'112 4.8
2018-Jun-12 18:45N 42°55' E 028°56'2 8.9
2018-Jun-12 18:28N 42°58' E 028°56'12 8.7
2018-Jun-12 17:03N 43°10' E 028°54'1 8.8
2018-Jun-12 16:57N 43°11' E 028°54'4 8.7
2018-Jun-12 16:30N 43°15' E 028°54'4 8.6
2018-Jun-12 16:00N 43°19' E 028°54'4 8.6
2018-Jun-12 15:30N 43°23' E 028°53'4 8.6
2018-Jun-12 15:00N 43°27' E 028°53'4 8.5
2018-Jun-12 14:29N 43°32' E 028°53'5 8.3
2018-Jun-12 13:53N 43°37' E 028°52'3 8.1
2018-Jun-12 13:28N 43°40' E 028°51'5 8.0
2018-Jun-12 12:50N 43°45' E 028°51'3 8.1
2018-Jun-12 12:28N 43°48' E 028°50'4 8.0
2018-Jun-12 12:00N 43°52' E 028°50'4 7.9
2018-Jun-12 11:30N 43°56' E 028°49'4 7.6
2018-Jun-12 11:00N 43°59' E 028°48'4 7.9
2018-Jun-12 10:30N 44°03' E 028°45'4 7.7
2018-Jun-12 10:00N 44°06' E 028°42'2 3.1
2018-Jun-12 09:30N 44°06' E 028°40'0 0.0
2018-Jun-12 08:40N 44°06' E 028°40'0 0.0
2018-Jun-12 08:28N 44°06' E 028°40'0 0.0
2018-Jun-12 07:58N 44°06' E 028°40'0 0.0
2018-Jun-12 07:25N 44°06' E 028°40'0 0.0
2018-Jun-12 06:55N 44°06' E 028°40'0 0.0
2018-Jun-12 06:25N 44°06' E 028°40'0 0.0
2018-Jun-12 05:58N 44°06' E 028°40'0 0.0
2018-Jun-12 05:28N 44°06' E 028°40'0 0.0
2018-Jun-12 04:58N 44°06' E 028°40'0 0.0
2018-Jun-12 04:28N 44°06' E 028°40'0 0.0
2018-Jun-12 03:58N 44°06' E 028°40'0 0.0
2018-Jun-12 03:28N 44°06' E 028°40'0 0.0
2018-Jun-12 02:58N 44°06' E 028°40'0 0.0
2018-Jun-12 02:28N 44°06' E 028°40'0 0.0
2018-Jun-12 01:58N 44°06' E 028°40'0 0.0
2018-Jun-12 01:28N 44°06' E 028°40'0 0.0
2018-Jun-12 00:58N 44°06' E 028°40'0 0.0
2018-Jun-12 00:28N 44°06' E 028°40'0 0.0
2018-Jun-11 23:55N 44°06' E 028°40'0 0.0
2018-Jun-11 23:28N 44°06' E 028°40'0 0.0
2018-Jun-11 22:58N 44°06' E 028°40'0 0.0
2018-Jun-11 22:19N 44°06' E 028°40'0 0.0
2018-Jun-11 21:58N 44°06' E 028°40'0 0.0
2018-Jun-11 21:28N 44°06' E 028°40'0 0.0
2018-Jun-11 20:58N 44°06' E 028°40'0 0.0
2018-Jun-11 20:28N 44°06' E 028°40'0 0.0
2018-Jun-11 19:58N 44°06' E 028°40'0 0.0
2018-Jun-11 19:28N 44°06' E 028°40'0 0.0
2018-Jun-11 18:58N 44°06' E 028°40'0 0.0
2018-Jun-11 18:28N 44°06' E 028°40'0 0.0
2018-Jun-11 17:58N 44°06' E 028°40'0 0.0
2018-Jun-11 17:28N 44°06' E 028°40'0 0.0
2018-Jun-11 16:58N 44°06' E 028°40'0 0.0
2018-Jun-11 16:28N 44°06' E 028°40'0 0.0
2018-Jun-11 15:58N 44°06' E 028°40'0 0.0
2018-Jun-11 15:25N 44°06' E 028°40'0 0.0
2018-Jun-11 14:55N 44°06' E 028°40'0 0.0
2018-Jun-11 14:28N 44°06' E 028°40'0 0.0
2018-Jun-11 13:55N 44°06' E 028°40'0 0.0
2018-Jun-11 13:25N 44°06' E 028°40'0 0.0
2018-Jun-11 12:55N 44°06' E 028°40'0 0.0
2018-Jun-11 12:25N 44°06' E 028°40'0 0.0
2018-Jun-11 11:52N 44°06' E 028°40'0 0.0
2018-Jun-11 11:28N 44°06' E 028°40'0 0.0
2018-Jun-11 10:58N 44°06' E 028°40'0 0.0
2018-Jun-11 10:28N 44°06' E 028°40'0 0.0
2018-Jun-11 09:59N 44°06' E 028°40'0 0.0
2018-Jun-11 09:19N 44°06' E 028°40'0 0.0
2018-Jun-11 08:46N 44°06' E 028°40'0 0.0
2018-Jun-11 08:28N 44°06' E 028°40'0 0.0
2018-Jun-11 07:58N 44°06' E 028°40'0 0.0
2018-Jun-11 07:22N 44°06' E 028°40'0 0.0
2018-Jun-11 06:58N 44°06' E 028°40'0 0.0
2018-Jun-11 06:25N 44°06' E 028°40'0 0.0
2018-Jun-11 05:58N 44°06' E 028°40'0 0.0
2018-Jun-11 05:22N 44°06' E 028°40'0 0.0
2018-Jun-11 04:43N 44°06' E 028°40'0 0.0
2018-Jun-11 04:22N 44°06' E 028°40'0 0.0
2018-Jun-11 03:58N 44°06' E 028°40'0 0.0
2018-Jun-11 03:28N 44°06' E 028°40'0 0.0
2018-Jun-11 02:58N 44°06' E 028°40'0 0.0
2018-Jun-11 02:28N 44°06' E 028°40'0 0.0
2018-Jun-11 01:55N 44°06' E 028°40'0 0.0
2018-Jun-11 01:28N 44°06' E 028°40'0 0.0
2018-Jun-11 00:55N 44°06' E 028°40'0 0.0
2018-Jun-11 00:28N 44°06' E 028°40'0 0.0
2018-Jun-10 23:58N 44°06' E 028°40'0 0.0
2018-Jun-10 23:19N 44°06' E 028°40'0 0.0
2018-Jun-10 22:58N 44°06' E 028°40'0 0.0
2018-Jun-10 22:28N 44°06' E 028°40'0 0.0
2018-Jun-10 21:55N 44°06' E 028°40'0 0.0
2018-Jun-10 21:19N 44°06' E 028°40'0 0.0
2018-Jun-10 20:58N 44°06' E 028°40'0 0.0
2018-Jun-10 20:25N 44°06' E 028°40'0 0.0
2018-Jun-10 19:58N 44°06' E 028°40'0 0.0
2018-Jun-10 19:28N 44°06' E 028°40'0 0.0
2018-Jun-10 18:58N 44°06' E 028°40'0 0.0
2018-Jun-10 18:28N 44°06' E 028°40'0 0.0
2018-Jun-10 17:58N 44°06' E 028°40'0 0.0
2018-Jun-10 17:28N 44°06' E 028°40'0 0.0
2018-Jun-10 16:46N 44°06' E 028°40'0 0.0
2018-Jun-10 16:28N 44°06' E 028°40'0 0.0
2018-Jun-10 15:58N 44°06' E 028°40'0 0.0
2018-Jun-10 15:25N 44°06' E 028°40'0 0.0
2018-Jun-10 14:58N 44°06' E 028°40'0 0.0
2018-Jun-10 13:58N 44°06' E 028°40'0 0.0
2018-Jun-10 13:28N 44°06' E 028°40'0 0.0
2018-Jun-10 12:58N 44°06' E 028°40'0 0.0
2018-Jun-10 12:22N 44°06' E 028°40'0 0.0
2018-Jun-10 11:55N 44°06' E 028°40'0 0.0
2018-Jun-10 11:25N 44°06' E 028°40'0 0.0
2018-Jun-10 10:52N 44°06' E 028°40'0 0.0
2018-Jun-10 10:25N 44°06' E 028°40'0 0.0
2018-Jun-10 09:43N 44°06' E 028°40'0 0.0
2018-Jun-10 09:19N 44°06' E 028°40'0 0.0
2018-Jun-10 08:58N 44°06' E 028°40'0 0.0
2018-Jun-10 08:28N 44°06' E 028°40'0 0.0
2018-Jun-10 08:01N 44°06' E 028°40'0 0.0
2018-Jun-10 07:30N 44°06' E 028°40'0 0.0
2018-Jun-10 07:00N 44°06' E 028°40'0 0.0
2018-Jun-10 06:30N 44°06' E 028°40'2 3.5
2018-Jun-10 06:00N 44°06' E 028°42'2 4.3
2018-Jun-10 05:30N 44°07' E 028°45'1 1.4
2018-Jun-10 04:58N 44°08' E 028°45'0 0.0
2018-Jun-10 04:28N 44°08' E 028°45'0 0.0
2018-Jun-10 03:58N 44°08' E 028°45'0 0.0
2018-Jun-10 03:28N 44°08' E 028°45'0 0.0
2018-Jun-10 02:58N 44°08' E 028°45'0 0.0
2018-Jun-10 02:22N 44°08' E 028°45'0 0.0
2018-Jun-10 01:58N 44°08' E 028°45'0 0.0
2018-Jun-10 01:13N 44°08' E 028°45'0 0.0
2018-Jun-10 00:58N 44°08' E 028°45'0 0.0
2018-Jun-10 00:22N 44°08' E 028°45'0 0.0
2018-Jun-09 23:58N 44°08' E 028°45'0 0.0
2018-Jun-09 23:28N 44°08' E 028°45'0 0.0
2018-Jun-09 22:58N 44°08' E 028°45'0 0.0
2018-Jun-09 22:28N 44°08' E 028°45'0 0.0
2018-Jun-09 21:58N 44°08' E 028°45'0 0.0
2018-Jun-09 21:28N 44°08' E 028°45'0 0.0
2018-Jun-09 20:52N 44°08' E 028°45'0 0.0
2018-Jun-09 20:16N 44°08' E 028°45'0 0.0
2018-Jun-09 19:49N 44°08' E 028°45'0 0.0
2018-Jun-09 19:28N 44°08' E 028°45'0 0.0
2018-Jun-09 18:58N 44°08' E 028°45'0 0.0
2018-Jun-09 18:28N 44°08' E 028°45'0 0.0
2018-Jun-09 17:58N 44°08' E 028°45'0 0.0
2018-Jun-09 17:28N 44°08' E 028°45'0 0.0
2018-Jun-09 16:58N 44°08' E 028°45'0 0.0
2018-Jun-09 16:22N 44°08' E 028°45'0 0.0
2018-Jun-09 15:58N 44°08' E 028°45'0 0.0
2018-Jun-09 15:28N 44°08' E 028°45'0 0.0
2018-Jun-09 14:28N 44°08' E 028°45'0 0.0
2018-Jun-09 13:58N 44°08' E 028°45'0 0.0
2018-Jun-09 13:28N 44°08' E 028°45'0 0.0
2018-Jun-09 12:40N 44°08' E 028°45'0 0.0
2018-Jun-09 12:10N 44°08' E 028°45'0 0.1
2018-Jun-09 11:58N 44°08' E 028°45'0 0.0
2018-Jun-09 11:04N 44°08' E 028°45'0 0.0
2018-Jun-09 10:55N 44°08' E 028°45'0 0.0
2018-Jun-09 10:19N 44°08' E 028°45'0 0.0
2018-Jun-09 09:52N 44°08' E 028°45'0 0.0
2018-Jun-09 09:28N 44°08' E 028°45'0 0.0
2018-Jun-09 08:58N 44°08' E 028°45'0 0.0
2018-Jun-09 08:22N 44°08' E 028°45'0 0.0
2018-Jun-09 07:58N 44°08' E 028°45'0 0.0
2018-Jun-09 07:10N 44°08' E 028°45'0 0.0
2018-Jun-09 06:52N 44°08' E 028°45'0 0.0
2018-Jun-09 06:28N 44°08' E 028°45'0 0.0
2018-Jun-09 05:52N 44°08' E 028°45'0 0.0
2018-Jun-09 05:28N 44°08' E 028°45'0 0.0
2018-Jun-09 04:49N 44°08' E 028°45'0 0.0
2018-Jun-09 04:25N 44°08' E 028°45'0 0.0
2018-Jun-09 03:58N 44°08' E 028°45'0 0.0
2018-Jun-09 03:25N 44°08' E 028°45'0 0.0
2018-Jun-09 02:37N 44°08' E 028°45'0 0.0
2018-Jun-09 02:28N 44°08' E 028°45'0 0.0
2018-Jun-09 01:40N 44°08' E 028°45'0 0.2
2018-Jun-09 01:28N 44°08' E 028°45'0 0.1
2018-Jun-09 00:58N 44°08' E 028°45'0 0.1
2018-Jun-09 00:22N 44°08' E 028°45'0 0.0
2018-Jun-08 23:58N 44°08' E 028°45'0 0.0
2018-Jun-08 23:19N 44°08' E 028°45'0 0.0
2018-Jun-08 22:58N 44°08' E 028°45'0 0.0
2018-Jun-08 22:28N 44°08' E 028°45'0 0.0
2018-Jun-08 21:52N 44°08' E 028°45'0 0.0
2018-Jun-08 21:22N 44°08' E 028°45'0 0.0
2018-Jun-08 21:00N 44°08' E 028°45'0 0.0
2018-Jun-08 20:30N 44°08' E 028°45'0 0.0
2018-Jun-08 20:00N 44°08' E 028°45'0 0.0
2018-Jun-08 19:30N 44°08' E 028°45'0 0.0
2018-Jun-08 18:59N 44°08' E 028°45'0 0.0
2018-Jun-08 18:31N 44°08' E 028°45'0 0.0
2018-Jun-08 18:00N 44°08' E 028°45'0 0.0
2018-Jun-08 17:30N 44°08' E 028°45'0 0.1
2018-Jun-08 17:01N 44°08' E 028°45'0 0.0
2018-Jun-08 16:30N 44°08' E 028°45'0 0.1
2018-Jun-08 16:00N 44°08' E 028°45'0 0.1
2018-Jun-08 15:31N 44°08' E 028°45'0 0.0
2018-Jun-08 15:00N 44°08' E 028°45'0 0.0
2018-Jun-08 14:31N 44°08' E 028°45'0 0.0
2018-Jun-08 14:01N 44°08' E 028°45'0 0.0
2018-Jun-08 13:31N 44°08' E 028°45'0 0.0
2018-Jun-08 12:59N 44°08' E 028°45'0 0.1
2018-Jun-08 12:27N 44°08' E 028°45'0 0.1
2018-Jun-08 12:01N 44°08' E 028°45'0 0.1
2018-Jun-08 11:30N 44°08' E 028°45'1 2.7
2018-Jun-08 11:00N 44°07' E 028°46'3 5.8
2018-Jun-08 10:30N 44°04' E 028°49'3 6.0
2018-Jun-08 10:01N 44°02' E 028°50'3 6.0
2018-Jun-08 09:31N 43°59' E 028°50'3 6.0
2018-Jun-08 09:01N 43°56' E 028°50'3 6.1
2018-Jun-08 08:30N 43°53' E 028°50'3 6.1
2018-Jun-08 08:00N 43°49' E 028°50'3 5.9
2018-Jun-08 07:30N 43°47' E 028°50'5 5.6
2018-Jun-08 06:37N 43°42' E 028°50'2 5.7
2018-Jun-08 06:18N 43°40' E 028°50'2 5.6
2018-Jun-08 05:58N 43°38' E 028°50'  
Track history (hours):
 
Tides and Currents Weather Stations Pressure Air Temp Water Temp Dewpoint Dewpoint Depression Visibility Wind Speed Wind Dir Waves Ship Positions

Ast Malta

Last reported at 2018-Jun-15 08:28 UTC. Time now 2018-Jun-18 21:16 UTC.
Position N 37°27' E 025°56'.

Length 99 m.

Type: Cargo ship. MMSI: 248097000.

Date/timePositionNaut miles runAvg speedWind from/ knotsBaromVisibWave heightAir tempDewpointWater temp
2018-Jun-15 08:28N 37°27' E 025°56'4 7.9
2018-Jun-15 08:00N 37°29' E 025°52'23 7.6
2018-Jun-15 04:56N 37°50' E 025°41'195 7.3
2018-Jun-14 02:05N 40°45' E 027°33'1 9.2
2018-Jun-14 02:00N 40°45' E 027°34'6 9.0
2018-Jun-14 01:17N 40°47' E 027°42'5 9.1
2018-Jun-14 00:46N 40°47' E 027°48'3 9.2
2018-Jun-14 00:29N 40°48' E 027°52'6 9.0
2018-Jun-13 23:52N 40°49' E 027°59'5 9.0
2018-Jun-13 23:21N 40°50' E 028°05'4 8.8
2018-Jun-13 22:57N 40°50' E 028°10'4 8.8
2018-Jun-13 22:29N 40°51' E 028°15'5 9.0
2018-Jun-13 21:58N 40°51' E 028°21'5 9.1
2018-Jun-13 21:25N 40°52' E 028°28'4 8.7
2018-Jun-13 20:57N 40°52' E 028°33'6 8.9
2018-Jun-13 20:13N 40°54' E 028°42'2 9.1
2018-Jun-13 20:00N 40°54' E 028°44'16 8.5
2018-Jun-13 18:07N 41°03' E 029°02'112 4.8
2018-Jun-12 18:45N 42°55' E 028°56'2 8.9
2018-Jun-12 18:28N 42°58' E 028°56'12 8.7
2018-Jun-12 17:03N 43°10' E 028°54'1 8.8
2018-Jun-12 16:57N 43°11' E 028°54'4 8.7
2018-Jun-12 16:30N 43°15' E 028°54'4 8.6
2018-Jun-12 16:00N 43°19' E 028°54'4 8.6
2018-Jun-12 15:30N 43°23' E 028°53'4 8.6
2018-Jun-12 15:00N 43°27' E 028°53'4 8.5
2018-Jun-12 14:29N 43°32' E 028°53'5 8.3
2018-Jun-12 13:53N 43°37' E 028°52'3 8.1
2018-Jun-12 13:28N 43°40' E 028°51'5 8.0
2018-Jun-12 12:50N 43°45' E 028°51'3 8.1
2018-Jun-12 12:28N 43°48' E 028°50'4 8.0
2018-Jun-12 12:00N 43°52' E 028°50'4 7.9
2018-Jun-12 11:30N 43°56' E 028°49'4 7.6
2018-Jun-12 11:00N 43°59' E 028°48'4 7.9
2018-Jun-12 10:30N 44°03' E 028°45'4 7.7
2018-Jun-12 10:00N 44°06' E 028°42'2 3.1
2018-Jun-12 09:30N 44°06' E 028°40'0 0.0
2018-Jun-12 08:40N 44°06' E 028°40'0 0.0
2018-Jun-12 08:28N 44°06' E 028°40'0 0.0
2018-Jun-12 07:58N 44°06' E 028°40'0 0.0
2018-Jun-12 07:25N 44°06' E 028°40'0 0.0
2018-Jun-12 06:55N 44°06' E 028°40'0 0.0
2018-Jun-12 06:25N 44°06' E 028°40'0 0.0
2018-Jun-12 05:58N 44°06' E 028°40'0 0.0
2018-Jun-12 05:28N 44°06' E 028°40'0 0.0
2018-Jun-12 04:58N 44°06' E 028°40'0 0.0
2018-Jun-12 04:28N 44°06' E 028°40'0 0.0
2018-Jun-12 03:58N 44°06' E 028°40'0 0.0
2018-Jun-12 03:28N 44°06' E 028°40'0 0.0
2018-Jun-12 02:58N 44°06' E 028°40'0 0.0
2018-Jun-12 02:28N 44°06' E 028°40'0 0.0
2018-Jun-12 01:58N 44°06' E 028°40'0 0.0
2018-Jun-12 01:28N 44°06' E 028°40'0 0.0
2018-Jun-12 00:58N 44°06' E 028°40'0 0.0
2018-Jun-12 00:28N 44°06' E 028°40'0 0.0
2018-Jun-11 23:55N 44°06' E 028°40'0 0.0
2018-Jun-11 23:28N 44°06' E 028°40'0 0.0
2018-Jun-11 22:58N 44°06' E 028°40'0 0.0
2018-Jun-11 22:19N 44°06' E 028°40'0 0.0
2018-Jun-11 21:58N 44°06' E 028°40'0 0.0
2018-Jun-11 21:28N 44°06' E 028°40'0 0.0
2018-Jun-11 20:58N 44°06' E 028°40'0 0.0
2018-Jun-11 20:28N 44°06' E 028°40'0 0.0
2018-Jun-11 19:58N 44°06' E 028°40'0 0.0
2018-Jun-11 19:28N 44°06' E 028°40'0 0.0
2018-Jun-11 18:58N 44°06' E 028°40'0 0.0
2018-Jun-11 18:28N 44°06' E 028°40'0 0.0
2018-Jun-11 17:58N 44°06' E 028°40'0 0.0
2018-Jun-11 17:28N 44°06' E 028°40'0 0.0
2018-Jun-11 16:58N 44°06' E 028°40'0 0.0
2018-Jun-11 16:28N 44°06' E 028°40'0 0.0
2018-Jun-11 15:58N 44°06' E 028°40'0 0.0
2018-Jun-11 15:25N 44°06' E 028°40'0 0.0
2018-Jun-11 14:55N 44°06' E 028°40'0 0.0
2018-Jun-11 14:28N 44°06' E 028°40'0 0.0
2018-Jun-11 13:55N 44°06' E 028°40'0 0.0
2018-Jun-11 13:25N 44°06' E 028°40'0 0.0
2018-Jun-11 12:55N 44°06' E 028°40'0 0.0
2018-Jun-11 12:25N 44°06' E 028°40'0 0.0
2018-Jun-11 11:52N 44°06' E 028°40'0 0.0
2018-Jun-11 11:28N 44°06' E 028°40'0 0.0
2018-Jun-11 10:58N 44°06' E 028°40'0 0.0
2018-Jun-11 10:28N 44°06' E 028°40'0 0.0
2018-Jun-11 09:59N 44°06' E 028°40'0 0.0
2018-Jun-11 09:19N 44°06' E 028°40'0 0.0
2018-Jun-11 08:46N 44°06' E 028°40'0 0.0
2018-Jun-11 08:28N 44°06' E 028°40'0 0.0
2018-Jun-11 07:58N 44°06' E 028°40'0 0.0
2018-Jun-11 07:22N 44°06' E 028°40'0 0.0
2018-Jun-11 06:58N 44°06' E 028°40'0 0.0
2018-Jun-11 06:25N 44°06' E 028°40'0 0.0
2018-Jun-11 05:58N 44°06' E 028°40'0 0.0
2018-Jun-11 05:22N 44°06' E 028°40'0 0.0
2018-Jun-11 04:43N 44°06' E 028°40'0 0.0
2018-Jun-11 04:22N 44°06' E 028°40'0 0.0
2018-Jun-11 03:58N 44°06' E 028°40'0 0.0
2018-Jun-11 03:28N 44°06' E 028°40'0 0.0
2018-Jun-11 02:58N 44°06' E 028°40'0 0.0
2018-Jun-11 02:28N 44°06' E 028°40'0 0.0
2018-Jun-11 01:55N 44°06' E 028°40'0 0.0
2018-Jun-11 01:28N 44°06' E 028°40'0 0.0
2018-Jun-11 00:55N 44°06' E 028°40'0 0.0
2018-Jun-11 00:28N 44°06' E 028°40'0 0.0
2018-Jun-10 23:58N 44°06' E 028°40'0 0.0
2018-Jun-10 23:19N 44°06' E 028°40'0 0.0
2018-Jun-10 22:58N 44°06' E 028°40'0 0.0
2018-Jun-10 22:28N 44°06' E 028°40'0 0.0
2018-Jun-10 21:55N 44°06' E 028°40'0 0.0
2018-Jun-10 21:19N 44°06' E 028°40'0 0.0
2018-Jun-10 20:58N 44°06' E 028°40'0 0.0
2018-Jun-10 20:25N 44°06' E 028°40'0 0.0
2018-Jun-10 19:58N 44°06' E 028°40'0 0.0
2018-Jun-10 19:28N 44°06' E 028°40'0 0.0
2018-Jun-10 18:58N 44°06' E 028°40'0 0.0
2018-Jun-10 18:28N 44°06' E 028°40'0 0.0
2018-Jun-10 17:58N 44°06' E 028°40'0 0.0
2018-Jun-10 17:28N 44°06' E 028°40'0 0.0
2018-Jun-10 16:46N 44°06' E 028°40'0 0.0
2018-Jun-10 16:28N 44°06' E 028°40'0 0.0
2018-Jun-10 15:58N 44°06' E 028°40'0 0.0
2018-Jun-10 15:25N 44°06' E 028°40'0 0.0
2018-Jun-10 14:58N 44°06' E 028°40'0 0.0
2018-Jun-10 13:58N 44°06' E 028°40'0 0.0
2018-Jun-10 13:28N 44°06' E 028°40'0 0.0
2018-Jun-10 12:58N 44°06' E 028°40'0 0.0
2018-Jun-10 12:22N 44°06' E 028°40'0 0.0
2018-Jun-10 11:55N 44°06' E 028°40'0 0.0
2018-Jun-10 11:25N 44°06' E 028°40'0 0.0
2018-Jun-10 10:52N 44°06' E 028°40'0 0.0
2018-Jun-10 10:25N 44°06' E 028°40'0 0.0
2018-Jun-10 09:43N 44°06' E 028°40'0 0.0
2018-Jun-10 09:19N 44°06' E 028°40'0 0.0
2018-Jun-10 08:58N 44°06' E 028°40'0 0.0
2018-Jun-10 08:28N 44°06' E 028°40'0 0.0
2018-Jun-10 08:01N 44°06' E 028°40'0 0.0
2018-Jun-10 07:30N 44°06' E 028°40'0 0.0
2018-Jun-10 07:00N 44°06' E 028°40'0 0.0
2018-Jun-10 06:30N 44°06' E 028°40'2 3.5
2018-Jun-10 06:00N 44°06' E 028°42'2 4.3
2018-Jun-10 05:30N 44°07' E 028°45'1 1.4
2018-Jun-10 04:58N 44°08' E 028°45'0 0.0
2018-Jun-10 04:28N 44°08' E 028°45'0 0.0
2018-Jun-10 03:58N 44°08' E 028°45'0 0.0
2018-Jun-10 03:28N 44°08' E 028°45'0 0.0
2018-Jun-10 02:58N 44°08' E 028°45'0 0.0
2018-Jun-10 02:22N 44°08' E 028°45'0 0.0
2018-Jun-10 01:58N 44°08' E 028°45'0 0.0
2018-Jun-10 01:13N 44°08' E 028°45'0 0.0
2018-Jun-10 00:58N 44°08' E 028°45'0 0.0
2018-Jun-10 00:22N 44°08' E 028°45'0 0.0
2018-Jun-09 23:58N 44°08' E 028°45'0 0.0
2018-Jun-09 23:28N 44°08' E 028°45'0 0.0
2018-Jun-09 22:58N 44°08' E 028°45'0 0.0
2018-Jun-09 22:28N 44°08' E 028°45'0 0.0
2018-Jun-09 21:58N 44°08' E 028°45'0 0.0
2018-Jun-09 21:28N 44°08' E 028°45'0 0.0
2018-Jun-09 20:52N 44°08' E 028°45'0 0.0
2018-Jun-09 20:16N 44°08' E 028°45'0 0.0
2018-Jun-09 19:49N 44°08' E 028°45'0 0.0
2018-Jun-09 19:28N 44°08' E 028°45'0 0.0
2018-Jun-09 18:58N 44°08' E 028°45'0 0.0
2018-Jun-09 18:28N 44°08' E 028°45'0 0.0
2018-Jun-09 17:58N 44°08' E 028°45'0 0.0
2018-Jun-09 17:28N 44°08' E 028°45'0 0.0
2018-Jun-09 16:58N 44°08' E 028°45'0 0.0
2018-Jun-09 16:22N 44°08' E 028°45'0 0.0
2018-Jun-09 15:58N 44°08' E 028°45'0 0.0
2018-Jun-09 15:28N 44°08' E 028°45'0 0.0
2018-Jun-09 14:28N 44°08' E 028°45'0 0.0
2018-Jun-09 13:58N 44°08' E 028°45'0 0.0
2018-Jun-09 13:28N 44°08' E 028°45'0 0.0
2018-Jun-09 12:40N 44°08' E 028°45'0 0.0
2018-Jun-09 12:10N 44°08' E 028°45'0 0.1
2018-Jun-09 11:58N 44°08' E 028°45'0 0.0
2018-Jun-09 11:04N 44°08' E 028°45'0 0.0
2018-Jun-09 10:55N 44°08' E 028°45'0 0.0
2018-Jun-09 10:19N 44°08' E 028°45'0 0.0
2018-Jun-09 09:52N 44°08' E 028°45'0 0.0
2018-Jun-09 09:28N 44°08' E 028°45'0 0.0
2018-Jun-09 08:58N 44°08' E 028°45'0 0.0
2018-Jun-09 08:22N 44°08' E 028°45'0 0.0
2018-Jun-09 07:58N 44°08' E 028°45'0 0.0
2018-Jun-09 07:10N 44°08' E 028°45'0 0.0
2018-Jun-09 06:52N 44°08' E 028°45'0 0.0
2018-Jun-09 06:28N 44°08' E 028°45'0 0.0
2018-Jun-09 05:52N 44°08' E 028°45'0 0.0
2018-Jun-09 05:28N 44°08' E 028°45'0 0.0
2018-Jun-09 04:49N 44°08' E 028°45'0 0.0
2018-Jun-09 04:25N 44°08' E 028°45'0 0.0
2018-Jun-09 03:58N 44°08' E 028°45'0 0.0
2018-Jun-09 03:25N 44°08' E 028°45'0 0.0
2018-Jun-09 02:37N 44°08' E 028°45'0 0.0
2018-Jun-09 02:28N 44°08' E 028°45'0 0.0
2018-Jun-09 01:40N 44°08' E 028°45'0 0.2
2018-Jun-09 01:28N 44°08' E 028°45'0 0.1
2018-Jun-09 00:58N 44°08' E 028°45'0 0.1
2018-Jun-09 00:22N 44°08' E 028°45'0 0.0
2018-Jun-08 23:58N 44°08' E 028°45'0 0.0
2018-Jun-08 23:19N 44°08' E 028°45'0 0.0
2018-Jun-08 22:58N 44°08' E 028°45'0 0.0
2018-Jun-08 22:28N 44°08' E 028°45'0 0.0
2018-Jun-08 21:52N 44°08' E 028°45'0 0.0
2018-Jun-08 21:22N 44°08' E 028°45'0 0.0
2018-Jun-08 21:00N 44°08' E 028°45'0 0.0
2018-Jun-08 20:30N 44°08' E 028°45'0 0.0
2018-Jun-08 20:00N 44°08' E 028°45'0 0.0
2018-Jun-08 19:30N 44°08' E 028°45'0 0.0
2018-Jun-08 18:59N 44°08' E 028°45'0 0.0
2018-Jun-08 18:31N 44°08' E 028°45'0 0.0
2018-Jun-08 18:00N 44°08' E 028°45'0 0.0
2018-Jun-08 17:30N 44°08' E 028°45'0 0.1
2018-Jun-08 17:01N 44°08' E 028°45'0 0.0
2018-Jun-08 16:30N 44°08' E 028°45'0 0.1
2018-Jun-08 16:00N 44°08' E 028°45'0 0.1
2018-Jun-08 15:31N 44°08' E 028°45'0 0.0
2018-Jun-08 15:00N 44°08' E 028°45'0 0.0
2018-Jun-08 14:31N 44°08' E 028°45'0 0.0
2018-Jun-08 14:01N 44°08' E 028°45'0 0.0
2018-Jun-08 13:31N 44°08' E 028°45'0 0.0
2018-Jun-08 12:59N 44°08' E 028°45'0 0.1
2018-Jun-08 12:27N 44°08' E 028°45'0 0.1
2018-Jun-08 12:01N 44°08' E 028°45'0 0.1
2018-Jun-08 11:30N 44°08' E 028°45'1 2.7
2018-Jun-08 11:00N 44°07' E 028°46'3 5.8
2018-Jun-08 10:30N 44°04' E 028°49'3 6.0
2018-Jun-08 10:01N 44°02' E 028°50'3 6.0
2018-Jun-08 09:31N 43°59' E 028°50'3 6.0
2018-Jun-08 09:01N 43°56' E 028°50'3 6.1
2018-Jun-08 08:30N 43°53' E 028°50'3 6.1
2018-Jun-08 08:00N 43°49' E 028°50'3 5.9
2018-Jun-08 07:30N 43°47' E 028°50'5 5.6
2018-Jun-08 06:37N 43°42' E 028°50'2 5.7
2018-Jun-08 06:18N 43°40' E 028°50'2 5.6
2018-Jun-08 05:58N 43°38' E 028°50'  

Dump ship's entire track history